Time;durP1;ratioP1;P1;durP2;ratioP2;P2;SDS_P1;SDS_P2;PMS_P1;PMS_P2;Temp;Humidity;BMP_temperature;BMP_pressure;BME280_temperature;BME280_humidity;BME280_pressure;Samples;Min_cycle;Max_cycle;Signal;HPM_P1;HPM_P2
2022/11/10 00:01:09;;;;;;;9.52;2.40;;;;;;;11.34;77.93;101463.59;3577844;40;20044;-60
2022/11/10 00:03:37;;;;;;;15.23;2.90;;;;;;;11.27;78.36;101461.31;3578319;40;20056;-59
2022/11/10 00:06:05;;;;;;;15.20;3.17;;;;;;;11.28;78.40;101480.06;3579566;40;20049;-60
2022/11/10 00:08:32;;;;;;;11.40;3.05;;;;;;;11.28;78.53;101474.69;3579236;40;20122;-59
2022/11/10 00:10:58;;;;;;;13.75;3.08;;;;;;;11.31;78.00;101477.22;3579399;40;20048;-58
2022/11/10 00:13:27;;;;;;;16.80;3.00;;;;;;;11.30;78.66;101474.63;3577078;40;20056;-60
2022/11/10 00:18:38;;;;;;;8.57;2.80;;;;;;;11.26;78.94;101482.00;3578663;40;20385;-58
2022/11/10 00:21:10;;;;;;;11.38;3.08;;;;;;;11.27;78.71;101480.16;3579249;40;20056;-60
2022/11/10 00:23:36;;;;;;;12.90;3.20;;;;;;;11.26;78.43;101470.34;3578857;40;20096;-60
2022/11/10 00:26:02;;;;;;;13.35;3.25;;;;;;;11.24;79.14;101481.19;3578826;40;20075;-58
2022/11/10 00:28:31;;;;;;;11.93;2.83;;;;;;;11.23;78.66;101481.28;3574909;40;20056;-60
2022/11/10 00:30:57;;;;;;;11.82;3.15;;;;;;;11.21;79.06;101477.81;3576797;40;20372;-59
2022/11/10 00:33:23;;;;;;;13.15;3.15;;;;;;;11.05;78.63;101454.41;3580083;40;20060;-59
2022/11/10 00:35:49;;;;;;;10.73;2.70;;;;;;;11.20;78.33;101495.78;3576872;40;20055;-60
2022/11/10 00:38:14;;;;;;;12.00;3.28;;;;;;;11.19;79.13;101495.84;3579011;40;20068;-59
2022/11/10 00:40:40;;;;;;;13.05;3.10;;;;;;;11.19;78.45;101509.31;3580217;40;20058;-60
2022/11/10 00:43:06;;;;;;;14.25;2.53;;;;;;;11.13;78.89;101505.09;3574377;40;20056;-60
2022/11/10 00:45:31;;;;;;;19.73;3.38;;;;;;;11.17;79.09;101509.41;3578651;40;20298;-60
2022/11/10 00:47:57;;;;;;;11.40;2.88;;;;;;;11.15;79.19;101505.91;3577133;40;21652;-59
2022/11/10 00:50:23;;;;;;;9.85;3.22;;;;;;;11.12;79.06;101511.44;3576859;40;20483;-59
2022/11/10 00:52:48;;;;;;;11.68;3.22;;;;;;;11.10;79.18;101513.34;3578179;40;20049;-60
2022/11/10 00:55:14;;;;;;;14.57;3.10;;;;;;;11.10;79.03;101516.03;3578295;40;20070;-60
2022/11/10 00:57:40;;;;;;;13.10;3.35;;;;;;;11.07;78.95;101513.53;3580691;40;20048;-59
2022/11/10 01:00:06;;;;;;;13.30;2.72;;;;;;;11.06;78.94;101511.78;3581484;40;20048;-60
2022/11/10 01:02:32;;;;;;;14.25;3.33;;;;;;;11.05;79.57;101508.22;3579043;40;20045;-59
2022/11/10 01:04:57;;;;;;;8.82;2.80;;;;;;;11.04;78.91;101502.94;3576281;40;20283;-57
2022/11/10 01:07:23;;;;;;;13.82;3.25;;;;;;;11.05;79.56;101510.03;3579126;40;20040;-60
2022/11/10 01:09:48;;;;;;;12.10;2.88;;;;;;;11.04;79.50;101508.31;3576587;40;20331;-60
2022/11/10 01:12:14;;;;;;;13.95;3.17;;;;;;;11.04;79.52;101513.69;3578556;40;20132;-58
2022/11/10 01:14:40;;;;;;;11.05;2.75;;;;;;;11.04;79.64;101513.69;3580776;40;20060;-60
2022/11/10 01:17:05;;;;;;;12.00;3.13;;;;;;;11.03;79.35;101512.78;3580251;40;20053;-59
2022/11/10 01:19:31;;;;;;;14.27;3.20;;;;;;;10.80;79.14;101484.44;3580022;40;20047;-59
2022/11/10 01:21:57;;;;;;;10.90;2.85;;;;;;;11.02;79.79;101518.28;3579301;40;20060;-59
2022/11/10 01:24:22;;;;;;;11.18;3.05;;;;;;;11.02;79.20;101531.72;3579682;40;20060;-59
2022/11/10 01:26:48;;;;;;;13.55;3.28;;;;;;;11.01;79.49;101541.63;3577219;40;20114;-59
2022/11/10 01:29:14;;;;;;;15.98;3.10;;;;;;;10.96;79.22;101527.53;3579773;40;20698;-59
2022/11/10 01:31:39;;;;;;;16.70;3.30;;;;;;;10.93;79.81;101550.06;3578581;40;20067;-58
2022/11/10 01:34:05;;;;;;;9.15;3.28;;;;;;;11.02;79.49;101553.25;3579552;40;20626;-60
2022/11/10 01:36:31;;;;;;;8.07;2.58;;;;;;;11.01;79.63;101551.53;3574947;40;20055;-60
2022/11/10 01:38:57;;;;;;;13.10;2.97;;;;;;;11.03;79.60;101549.59;3579359;40;20052;-59
2022/11/10 01:41:22;;;;;;;13.50;3.30;;;;;;;11.04;79.32;101562.13;3576160;40;20069;-59
2022/11/10 01:43:48;;;;;;;13.02;3.67;;;;;;;11.02;79.25;101554.13;3579314;40;20132;-59
2022/11/10 01:46:15;;;;;;;10.57;2.60;;;;;;;11.03;79.58;101553.16;3580035;40;20068;-58
2022/11/10 01:48:59;;;;;;;12.73;3.13;;;;;;;11.02;79.07;101555.94;3578094;40;20052;-58
2022/11/10 01:51:38;;;;;;;;;;;;;;;10.99;79.27;101556.97;3578638;40;20080;-59
2022/11/10 01:54:29;;;;;;;11.38;3.25;;;;;;;10.97;79.65;101552.59;3578069;40;19928;-60
2022/11/10 01:57:04;;;;;;;11.68;2.95;;;;;;;10.99;79.41;101548.88;3579000;40;20414;-59
2022/11/10 01:59:39;;;;;;;14.65;3.33;;;;;;;10.99;79.67;101556.09;3581542;40;20064;-58
2022/11/10 02:02:39;;;;;;;9.80;3.05;;;;;;;10.97;79.00;101555.28;3580054;40;20044;-60
2022/11/10 02:05:07;;;;;;;11.60;3.00;;;;;;;10.98;79.24;101547.16;3575871;40;20071;-60
2022/11/10 02:07:34;;;;;;;10.07;3.55;;;;;;;10.93;79.16;101547.38;3580039;40;20056;-59
2022/11/10 02:10:01;;;;;;;13.43;3.42;;;;;;;10.93;79.25;101552.75;3580848;40;20048;-58
2022/11/10 02:12:37;;;;;;;9.88;2.90;;;;;;;10.97;79.33;101547.22;3578604;40;20054;-62
2022/11/10 02:15:07;;;;;;;13.98;2.80;;;;;;;10.98;78.84;101557.06;3578634;40;20110;-59
2022/11/10 02:17:33;;;;;;;11.10;2.60;;;;;;;10.97;79.30;101552.59;3578907;40;20696;-59
2022/11/10 02:20:08;;;;;;;12.35;3.17;;;;;;;10.97;79.57;101552.59;3577326;40;20060;-59
2022/11/10 02:22:36;;;;;;;13.70;2.58;;;;;;;10.96;79.07;101559.81;3578221;40;20398;-59
2022/11/10 02:25:03;;;;;;;13.07;3.03;;;;;;;10.96;79.27;101554.44;3581122;40;20056;-58
2022/11/10 02:27:29;;;;;;;13.27;3.00;;;;;;;10.93;79.41;101565.34;3580445;40;20415;-59
2022/11/10 02:29:56;;;;;;;14.82;3.05;;;;;;;10.97;79.10;101571.44;3570541;40;20058;-58
2022/11/10 02:32:22;;;;;;;13.43;2.90;;;;;;;10.97;79.33;101579.50;3578637;40;20392;-59
2022/11/10 02:34:48;;;;;;;11.43;2.88;;;;;;;10.98;79.29;101579.44;3575461;40;20056;-59
2022/11/10 02:37:14;;;;;;;14.48;2.95;;;;;;;11.00;78.78;101592.81;3577601;40;20071;-59
2022/11/10 02:39:39;;;;;;;15.07;3.67;;;;;;;10.96;78.85;101596.59;3577753;40;20279;-59
2022/11/10 02:42:09;;;;;;;10.32;3.03;;;;;;;10.86;79.34;101591.69;3577751;40;20093;-59
2022/11/10 02:44:39;;;;;;;13.32;3.17;;;;;;;10.91;79.42;101603.09;3577365;40;20480;-59
2022/11/10 02:47:06;;;;;;;8.02;2.50;;;;;;;10.91;79.23;101621.06;3579545;40;20060;-59
2022/11/10 02:49:32;;;;;;;14.23;3.28;;;;;;;10.90;78.96;101617.47;3580233;40;20055;-60
2022/11/10 02:51:58;;;;;;;12.00;2.70;;;;;;;10.84;78.83;101620.47;3577561;40;20056;-60
2022/11/10 02:54:23;;;;;;;10.13;2.42;;;;;;;10.86;79.33;101628.47;3580319;40;20091;-59
2022/11/10 02:56:49;;;;;;;12.98;2.88;;;;;;;10.84;79.17;101614.22;3578574;40;20059;-59
2022/11/10 02:59:14;;;;;;;10.70;2.88;;;;;;;10.82;79.40;101610.78;3580353;40;20068;-60
2022/11/10 03:01:40;;;;;;;12.50;2.85;;;;;;;10.79;79.26;101606.41;3577200;40;20350;-60
2022/11/10 03:04:06;;;;;;;15.98;2.95;;;;;;;10.74;79.74;101602.19;3575614;40;20059;-59
2022/11/10 03:06:32;;;;;;;12.25;2.65;;;;;;;10.65;80.18;101604.38;3578914;40;20310;-59
2022/11/10 03:08:58;;;;;;;6.38;2.42;;;;;;;10.68;80.74;101612.31;3577176;40;20049;-58
2022/11/10 03:11:23;;;;;;;13.18;3.15;;;;;;;10.68;80.26;101616.81;3579487;40;20052;-60
2022/11/10 03:13:49;;;;;;;19.02;3.38;;;;;;;10.67;80.58;101625.84;3579175;40;20370;-59
2022/11/10 03:16:15;;;;;;;11.27;2.92;;;;;;;10.56;80.23;101615.63;3579835;40;20122;-60
2022/11/10 03:18:41;;;;;;;12.90;2.80;;;;;;;10.63;79.92;101632.31;3576282;40;20049;-63
2022/11/10 03:21:07;;;;;;;16.77;4.03;;;;;;;10.63;79.99;101632.31;3580944;40;20423;-61
2022/11/10 03:23:33;;;;;;;11.70;2.92;;;;;;;10.59;80.65;101636.09;3578273;40;20067;-61
2022/11/10 03:26:03;;;;;;;18.42;3.70;;;;;;;10.57;80.87;101633.47;3575931;40;20108;-62
2022/11/10 03:28:28;;;;;;;11.55;2.97;;;;;;;10.57;80.19;101644.25;3578985;40;20060;-63
2022/11/10 03:30:54;;;;;;;11.85;3.13;;;;;;;10.55;80.66;101650.63;3580236;40;20062;-61
2022/11/10 03:33:19;;;;;;;13.32;3.03;;;;;;;10.56;80.58;101638.91;3577075;40;20068;-61
2022/11/10 03:35:45;;;;;;;13.98;3.28;;;;;;;10.52;80.01;101661.53;3578064;40;20060;-63
2022/11/10 03:38:10;;;;;;;13.88;3.60;;;;;;;10.49;80.10;101659.84;3579714;40;20149;-61
2022/11/10 03:40:36;;;;;;;16.45;4.07;;;;;;;10.47;80.61;101658.22;3577629;40;20145;-61
2022/11/10 03:43:02;;;;;;;16.55;3.88;;;;;;;10.47;81.05;101668.97;3578585;40;20486;-61
2022/11/10 03:45:27;;;;;;;13.32;2.97;;;;;;;10.43;80.42;101668.22;3576894;40;20352;-61
2022/11/10 03:47:53;;;;;;;14.70;3.83;;;;;;;10.31;80.94;101658.94;3579145;40;20057;-61
2022/11/10 03:50:18;;;;;;;13.93;3.72;;;;;;;10.37;80.51;101673.88;3579425;40;20052;-61
2022/11/10 03:52:46;;;;;;;13.40;3.55;;;;;;;10.34;80.49;101677.59;3577648;40;20265;-61
2022/11/10 03:55:16;;;;;;;12.57;3.17;;;;;;;10.23;80.26;101667.31;3578660;40;20052;-61
2022/11/10 03:57:42;;;;;;;9.80;2.97;;;;;;;10.31;80.62;101683.13;3578709;40;20070;-61
2022/11/10 04:00:12;;;;;;;15.55;3.40;;;;;;;10.28;80.35;101691.31;3577865;40;20052;-62
2022/11/10 04:02:38;;;;;;;14.93;3.28;;;;;;;10.25;80.63;101696.81;3579194;40;20355;-61
2022/11/10 04:10:43;;;;;;;11.97;3.27;;;;;;;10.18;81.00;101692.66;3579267;40;20088;-61
2022/11/10 04:15:54;;;;;;;15.20;3.25;;;;;;;10.17;81.27;101705.22;3578967;40;20640;-61
2022/11/10 04:18:20;;;;;;;15.30;3.35;;;;;;;10.15;81.86;101711.63;3578902;40;20056;-62
2022/11/10 04:20:54;;;;;;;12.27;3.15;;;;;;;10.15;81.38;101717.88;3575918;40;20056;-61
2022/11/10 04:23:26;;;;;;;13.50;3.47;;;;;;;10.16;82.07;101719.59;3579202;40;20052;-61
2022/11/10 04:28:48;;;;;;;11.68;3.03;;;;;;;10.15;82.40;101717.00;3578193;40;20067;-61
2022/11/10 04:31:16;;;;;;;13.35;3.42;;;;;;;10.12;82.50;101727.88;3580713;40;20051;-61
2022/11/10 04:33:43;;;;;;;18.15;3.53;;;;;;;10.10;81.90;101727.94;3579474;40;20462;-61
2022/11/10 04:36:14;;;;;;;13.73;3.78;;;;;;;10.15;81.91;101730.44;3581030;40;20072;-61
2022/11/10 04:38:40;;;;;;;11.45;3.30;;;;;;;10.15;82.48;101739.34;3580052;40;20627;-61
2022/11/10 04:41:07;;;;;;;15.85;3.72;;;;;;;10.15;81.82;101739.34;3579814;40;20059;-61
2022/11/10 04:43:33;;;;;;;17.85;3.28;;;;;;;10.15;81.84;101743.88;3576294;40;20096;-61
2022/11/10 04:46:00;;;;;;;10.98;3.08;;;;;;;10.17;81.91;101747.34;3582856;40;20056;-64
2022/11/10 04:48:27;;;;;;;12.23;2.92;;;;;;;10.17;82.46;101750.03;3581650;40;20054;-61
2022/11/10 04:50:53;;;;;;;13.35;3.10;;;;;;;10.01;82.45;101725.66;3578461;40;20052;-61
2022/11/10 04:53:20;;;;;;;10.38;2.50;;;;;;;9.65;82.36;101667.31;3580973;40;20141;-61
2022/11/10 04:55:46;;;;;;;15.32;3.25;;;;;;;10.18;82.44;101765.19;3579083;40;20336;-61
2022/11/10 04:58:14;;;;;;;12.90;3.05;;;;;;;10.17;81.54;101768.81;3580001;40;20088;-61
2022/11/10 05:00:41;;;;;;;15.13;3.30;;;;;;;10.18;82.36;101770.56;3577664;40;20100;-62
2022/11/10 05:03:10;;;;;;;14.93;3.50;;;;;;;10.17;82.54;101774.19;3579206;40;20064;-61
2022/11/10 05:05:36;;;;;;;11.70;3.10;;;;;;;10.17;82.54;101776.88;3578080;40;20048;-61
2022/11/10 05:08:03;;;;;;;20.83;3.40;;;;;;;10.18;81.98;101778.63;3581455;40;20210;-61
2022/11/10 05:10:29;;;;;;;14.48;3.35;;;;;;;10.17;82.42;101780.44;3578914;40;20056;-61
2022/11/10 05:12:56;;;;;;;13.95;2.88;;;;;;;9.98;81.95;101747.28;3576879;40;20068;-61
2022/11/10 05:15:23;;;;;;;17.20;3.22;;;;;;;10.16;82.44;101800.19;3581396;40;20048;-61
2022/11/10 05:17:51;;;;;;;14.13;3.53;;;;;;;10.17;82.54;101793.00;3580744;40;20048;-62
2022/11/10 05:20:20;;;;;;;14.07;2.80;;;;;;;10.09;81.92;101787.13;3580699;40;20375;-62
2022/11/10 05:25:39;;;;;;;16.42;3.25;;;;;;;10.11;81.94;101801.34;3575361;40;20089;-61
2022/11/10 05:28:08;;;;;;;13.73;3.58;;;;;;;10.08;82.12;101801.47;3577015;40;20415;-63
2022/11/10 05:30:34;;;;;;;20.02;7.07;;;;;;;10.07;82.52;101800.59;3581350;40;20063;-62
2022/11/10 05:33:01;;;;;;;14.45;5.30;;;;;;;10.04;82.00;101799.88;3581939;40;20413;-62
2022/11/10 05:35:27;;;;;;;15.95;3.33;;;;;;;10.03;82.43;101803.50;3580576;40;20126;-61
2022/11/10 05:37:53;;;;;;;15.43;3.38;;;;;;;10.03;82.50;101795.44;3578345;40;20299;-62
2022/11/10 05:40:18;;;;;;;16.77;6.65;;;;;;;9.99;82.24;101786.66;3578782;40;20071;-61
2022/11/10 05:42:51;;;;;;;18.48;4.78;;;;;;;9.98;82.71;101788.44;3581213;40;20090;-62
2022/11/10 05:45:23;;;;;;;8.90;3.53;;;;;;;9.97;82.56;101778.66;3579043;40;20307;-62
2022/11/10 05:47:50;;;;;;;17.38;3.40;;;;;;;9.95;83.00;101788.56;3577502;40;20053;-62
2022/11/10 05:50:17;;;;;;;12.07;3.40;;;;;;;9.91;82.57;101795.03;3580509;40;20148;-62
2022/11/10 05:52:47;;;;;;;14.18;3.65;;;;;;;9.89;82.64;101802.28;3578122;40;20071;-60
2022/11/10 05:55:15;;;;;;;12.18;3.20;;;;;;;9.93;82.55;101806.59;3579239;40;20052;-62
2022/11/10 05:57:46;;;;;;;18.58;3.45;;;;;;;9.93;83.41;101811.97;3579833;40;20060;-61
2022/11/10 06:00:20;;;;;;;11.98;3.53;;;;;;;9.95;82.75;101815.44;3576341;40;20064;-62
2022/11/10 06:03:03;;;;;;;14.30;3.00;;;;;;;9.97;82.60;101810.00;3578548;40;20064;-62
2022/11/10 06:05:33;;;;;;;11.20;2.90;;;;;;;9.97;82.75;101816.25;3580924;40;20056;-63
2022/11/10 06:08:02;;;;;;;14.27;3.50;;;;;;;9.95;83.06;101819.94;3579361;40;20056;-63
2022/11/10 06:10:28;;;;;;;13.27;3.45;;;;;;;9.98;82.59;101827.88;3579396;40;20076;-62
2022/11/10 06:12:53;;;;;;;12.68;3.20;;;;;;;9.96;82.73;101836.00;3578585;40;20081;-62
2022/11/10 06:15:20;;;;;;;19.13;3.80;;;;;;;9.96;82.90;101840.50;3579964;40;20316;-62
2022/11/10 06:17:47;;;;;;;18.80;3.47;;;;;;;9.89;82.94;101833.63;3579324;40;20052;-61
2022/11/10 06:20:14;;;;;;;16.08;2.95;;;;;;;9.93;83.16;101857.63;3576820;40;20399;-61
2022/11/10 06:22:40;;;;;;;11.25;3.33;;;;;;;9.94;83.16;101845.06;3577514;40;20068;-62
2022/11/10 06:25:07;;;;;;;12.95;3.63;;;;;;;9.94;83.15;101854.00;3579583;40;20097;-61
2022/11/10 06:27:33;;;;;;;13.90;3.25;;;;;;;9.92;82.60;101855.84;3577905;40;20398;-61
2022/11/10 06:29:58;;;;;;;16.25;3.67;;;;;;;9.87;83.37;101847.13;3577514;40;20056;-62
2022/11/10 06:32:24;;;;;;;16.85;3.13;;;;;;;9.88;82.76;101859.63;3578379;40;20064;-61
2022/11/10 06:34:49;;;;;;;8.85;3.45;;;;;;;9.88;83.34;101854.25;3578949;40;20129;-62
2022/11/10 06:37:15;;;;;;;11.95;3.00;;;;;;;9.87;83.50;101862.38;3575356;40;20126;-63
2022/11/10 06:39:41;;;;;;;22.73;3.80;;;;;;;9.85;83.13;101870.50;3577496;40;20048;-62
2022/11/10 06:42:06;;;;;;;13.02;3.25;;;;;;;9.68;83.47;101847.03;3578036;40;20063;-62
2022/11/10 06:44:32;;;;;;;10.15;2.63;;;;;;;9.86;83.60;101880.28;3577720;40;20656;-61
2022/11/10 06:46:57;;;;;;;10.52;3.70;;;;;;;9.75;83.59;101871.81;3576687;40;20060;-61
2022/11/10 06:49:23;;;;;;;14.70;3.67;;;;;;;9.83;83.03;101888.50;3579052;40;20056;-62
2022/11/10 06:51:49;;;;;;;16.60;3.15;;;;;;;9.82;83.15;101897.47;3576908;40;20052;-61
2022/11/10 06:54:14;;;;;;;14.75;3.33;;;;;;;9.84;83.59;101900.09;3580210;40;20056;-61
2022/11/10 06:56:40;;;;;;;11.48;3.05;;;;;;;9.83;83.85;101899.25;3578860;40;20072;-62
2022/11/10 06:59:05;;;;;;;12.90;3.35;;;;;;;9.79;83.64;101896.72;3580637;40;20067;-61
2022/11/10 07:01:31;;;;;;;16.70;3.75;;;;;;;9.84;83.28;101900.97;3574352;40;20289;-61
2022/11/10 07:03:57;;;;;;;15.65;3.40;;;;;;;9.84;83.87;101906.34;3577543;40;20055;-62
2022/11/10 07:06:22;;;;;;;13.85;3.22;;;;;;;9.86;83.18;101904.44;3580313;40;20316;-61
2022/11/10 07:08:48;;;;;;;12.98;3.03;;;;;;;9.86;83.83;101908.94;3581964;40;20068;-61
2022/11/10 07:11:15;;;;;;;15.43;3.17;;;;;;;9.70;83.28;101897.97;3577446;40;20083;-62
2022/11/10 07:13:41;;;;;;;13.63;3.40;;;;;;;9.85;82.93;101913.47;3577002;40;20060;-62
2022/11/10 07:16:09;;;;;;;11.98;3.78;;;;;;;9.86;83.63;101919.69;3578761;40;20067;-61
2022/11/10 07:18:35;;;;;;;16.10;3.45;;;;;;;9.87;83.98;101933.06;3578960;40;20119;-61
2022/11/10 07:21:03;;;;;;;16.85;3.03;;;;;;;9.86;84.01;101941.19;3577871;40;20368;-62
2022/11/10 07:23:29;;;;;;;17.42;3.90;;;;;;;9.92;84.03;101941.81;3578671;40;20040;-61
2022/11/10 07:25:58;;;;;;;11.77;3.17;;;;;;;9.94;83.96;101945.31;3580044;40;20103;-61
2022/11/10 07:28:23;;;;;;;13.50;3.63;;;;;;;9.98;83.28;101940.69;3576516;40;20075;-61
2022/11/10 07:30:49;;;;;;;14.63;3.65;;;;;;;10.02;83.76;101952.16;3579125;40;20062;-62
2022/11/10 07:33:15;;;;;;;11.40;3.10;;;;;;;10.05;83.74;101960.09;3577623;40;20056;-62
2022/11/10 07:35:41;;;;;;;21.25;3.45;;;;;;;10.09;83.38;101967.13;3578651;40;20076;-62
2022/11/10 07:38:11;;;;;;;12.07;3.20;;;;;;;10.10;82.84;101968.84;3580447;40;20459;-61
2022/11/10 07:40:37;;;;;;;16.35;3.35;;;;;;;10.15;82.87;101972.25;3578397;40;20056;-61
2022/11/10 07:43:03;;;;;;;13.10;3.25;;;;;;;10.19;82.31;101972.03;3576978;40;20311;-61
2022/11/10 07:45:31;;;;;;;10.70;3.20;;;;;;;10.25;82.33;101968.22;3577077;40;20164;-61
2022/11/10 07:48:03;;;;;;;18.42;3.80;;;;;;;10.14;82.42;101954.34;3578873;40;20059;-62
2022/11/10 07:50:28;;;;;;;14.57;3.38;;;;;;;10.33;82.20;101973.28;3577476;40;20048;-61
2022/11/10 07:53:18;;;;;;;11.93;3.13;;;;;;;10.39;82.47;101976.59;3579315;40;20365;-61
2022/11/10 07:55:45;;;;;;;14.52;3.55;;;;;;;10.47;82.09;101970.91;3577962;40;20080;-62
2022/11/10 07:58:14;;;;;;;11.30;3.13;;;;;;;10.47;81.65;101970.91;3580243;40;20050;-62
2022/11/10 08:00:42;;;;;;;19.45;4.15;;;;;;;10.32;80.86;101934.78;3608015;22;20057;-61
2022/11/10 08:03:13;;;;;;;13.27;2.83;;;;;;;10.63;80.62;101992.63;3556360;40;20296;-64
2022/11/10 08:05:39;;;;;;;15.30;3.35;;;;;;;10.69;80.36;101998.59;3557050;40;20111;-64
2022/11/10 08:08:06;;;;;;;16.05;3.47;;;;;;;10.68;80.25;101990.59;3555236;40;20057;-61
2022/11/10 08:10:32;;;;;;;13.98;3.42;;;;;;;10.60;80.23;101965.88;3560069;40;20052;-61
2022/11/10 08:13:02;;;;;;;15.32;3.38;;;;;;;10.87;80.40;102004.09;3557846;40;20312;-64
2022/11/10 08:15:30;;;;;;;15.05;3.55;;;;;;;10.87;79.67;102007.66;3556909;40;20084;-64
2022/11/10 08:18:12;;;;;;;9.98;2.97;;;;;;;10.98;79.18;102025.16;3557311;40;20097;-61
2022/11/10 08:20:37;;;;;;;13.00;2.88;;;;;;;11.03;79.61;102023.13;3557340;40;20172;-61
2022/11/10 08:23:05;;;;;;;13.13;3.15;;;;;;;11.08;79.78;102029.19;3559697;40;20055;-61
2022/11/10 08:25:35;;;;;;;14.50;3.72;;;;;;;11.11;79.30;102029.06;3557795;40;20271;-61
2022/11/10 08:28:16;;;;;;;10.23;3.22;;;;;;;11.07;79.05;102006.81;3559950;40;20061;-62
2022/11/10 08:30:45;;;;;;;13.90;3.08;;;;;;;11.25;78.76;102023.91;3560527;40;20513;-62
2022/11/10 08:33:14;;;;;;;10.68;3.05;;;;;;;11.29;78.21;102028.25;3559949;40;20053;-62
2022/11/10 08:35:44;;;;;;;13.02;3.28;;;;;;;11.35;78.54;102036.03;3555669;40;20065;-62
2022/11/10 08:38:17;;;;;;;11.07;3.08;;;;;;;11.47;78.18;102033.69;3557110;40;20055;-62
2022/11/10 08:40:44;;;;;;;14.45;3.10;;;;;;;11.60;77.86;102038.44;3557447;40;20068;-62
2022/11/10 08:43:11;;;;;;;13.50;4.00;;;;;;;11.75;77.04;102034.16;3559831;40;20065;-62
2022/11/10 08:45:41;;;;;;;14.68;3.28;;;;;;;11.84;76.54;102033.75;3559907;40;20419;-62
2022/11/10 08:48:14;;;;;;;16.30;3.08;;;;;;;11.94;76.03;102038.72;3559290;40;20390;-62
2022/11/10 08:50:41;;;;;;;13.63;3.28;;;;;;;11.99;76.00;102032.16;3556670;40;20070;-63
2022/11/10 08:53:15;;;;;;;9.25;2.50;;;;;;;12.24;74.99;102042.63;3558831;40;20053;-62
2022/11/10 08:55:42;;;;;;;15.77;2.88;;;;;;;12.37;74.88;102048.28;3555703;40;20178;-62
2022/11/10 08:58:22;;;;;;;14.65;3.10;;;;;;;12.56;74.15;102056.31;3560119;40;20053;-62
2022/11/10 09:00:50;;;;;;;13.52;3.35;;;;;;;12.54;72.96;102036.63;3557452;40;20050;-62
2022/11/10 09:03:17;;;;;;;12.32;3.63;;;;;;;12.83;72.56;102059.41;3558956;40;20091;-62
2022/11/10 09:05:45;;;;;;;11.45;3.05;;;;;;;12.95;72.17;102056.09;3557768;40;20057;-62
2022/11/10 09:08:12;;;;;;;14.88;3.05;;;;;;;13.11;72.38;102066.09;3559646;40;20083;-62
2022/11/10 09:10:46;;;;;;;13.50;3.78;;;;;;;13.13;71.55;102045.25;3558996;40;20061;-62
2022/11/10 09:13:14;;;;;;;14.93;3.30;;;;;;;13.35;70.64;102069.31;3559578;40;20289;-62
2022/11/10 09:15:42;;;;;;;11.85;3.03;;;;;;;13.45;70.39;102074.16;3560367;40;20089;-64
2022/11/10 09:18:11;;;;;;;16.20;3.00;;;;;;;13.53;70.65;102057.53;3560576;40;20084;-62
2022/11/10 09:20:38;;;;;;;10.85;2.92;;;;;;;13.43;69.94;102050.88;3559136;40;20053;-63
2022/11/10 09:23:05;;;;;;;8.88;2.78;;;;;;;13.74;70.30;102084.34;3569064;40;20063;-62
2022/11/10 09:25:31;;;;;;;14.95;3.60;;;;;;;13.84;69.28;102085.56;3561601;40;20341;-62
2022/11/10 09:27:57;;;;;;;11.15;3.75;;;;;;;13.99;69.24;102079.31;3562762;40;20092;-62
2022/11/10 09:30:24;;;;;;;13.40;3.42;;;;;;;14.06;67.86;102075.31;3559500;40;20068;-62
2022/11/10 09:32:58;;;;;;;11.32;2.28;;;;;;;14.23;67.80;102087.00;3559864;40;20116;-63
2022/11/10 09:35:25;;;;;;;11.13;3.20;;;;;;;14.46;67.68;102082.94;3560741;40;20106;-62
2022/11/10 09:37:51;;;;;;;11.05;2.90;;;;;;;14.58;66.66;102068.75;3561423;40;20063;-63
2022/11/10 09:40:43;;;;;;;12.65;4.00;;;;;;;14.79;65.60;102089.13;3560739;40;20340;-63
2022/11/10 09:43:30;;;;;;;11.52;3.15;;;;;;;14.90;65.54;102079.50;3559220;40;20059;-62
2022/11/10 09:46:04;;;;;;;14.90;3.28;;;;;;;15.07;65.02;102084.78;3559943;40;20106;-63
2022/11/10 09:48:34;;;;;;;;;;;;;;;15.15;65.03;102089.72;3561723;40;20061;-63
2022/11/10 09:51:23;;;;;;;9.63;3.38;;;;;;;15.27;64.58;102095.25;3561554;40;20029;-62
2022/11/10 09:53:57;;;;;;;10.13;2.80;;;;;;;15.22;63.99;102064.00;3560468;40;20101;-63
2022/11/10 09:56:36;;;;;;;12.25;3.47;;;;;;;15.58;63.31;102092.50;3560716;40;20088;-63
2022/11/10 09:59:31;;;;;;;13.77;3.80;;;;;;;15.64;63.03;102083.97;3567965;40;20127;-63
2022/11/10 10:02:17;;;;;;;15.98;3.50;;;;;;;15.74;62.41;102091.47;3559965;40;20057;-62
2022/11/10 10:05:03;;;;;;;11.18;3.20;;;;;;;15.84;62.26;102078.19;3561916;40;20049;-62
2022/11/10 10:07:45;;;;;;;13.05;3.28;;;;;;;16.08;61.10;102085.69;3561047;40;20303;-62
2022/11/10 10:10:30;;;;;;;12.77;3.22;;;;;;;16.25;61.80;102089.06;3558467;40;20498;-64
2022/11/10 10:13:21;;;;;;;11.90;2.97;;;;;;;16.43;60.39;102097.84;3560340;40;20046;-62
2022/11/10 10:16:14;;;;;;;10.07;3.10;;;;;;;16.57;60.09;102090.63;3559184;40;20188;-63
2022/11/10 10:18:56;;;;;;;13.50;3.08;;;;;;;16.71;58.95;102098.69;3559476;40;20209;-62
2022/11/10 10:21:59;;;;;;;13.43;3.20;;;;;;;16.89;58.92;102104.75;3559100;40;20053;-62
2022/11/10 10:24:29;;;;;;;12.20;3.00;;;;;;;17.12;57.78;102114.03;3560852;40;20051;-62
2022/11/10 10:27:01;;;;;;;8.80;2.88;;;;;;;17.26;57.09;102118.53;3560123;40;20056;-62
2022/11/10 10:29:38;;;;;;;11.25;2.80;;;;;;;17.39;56.91;102114.84;3560926;40;20049;-62
2022/11/10 10:32:13;;;;;;;14.18;3.67;;;;;;;17.58;57.47;102125.31;3558402;40;20061;-62
2022/11/10 10:34:43;;;;;;;11.95;3.25;;;;;;;17.77;56.70;102129.47;3559889;40;20493;-63
2022/11/10 10:37:46;;;;;;;11.15;2.70;;;;;;;17.90;55.65;102137.63;3559924;40;20053;-62
2022/11/10 10:40:23;;;;;;;9.75;2.58;;;;;;;17.85;55.30;102144.25;3560134;40;20053;-62
2022/11/10 10:42:50;;;;;;;10.55;2.60;;;;;;;17.80;55.68;102146.44;3558714;40;20093;-62
2022/11/10 10:45:28;;;;;;;11.93;2.95;;;;;;;17.90;54.66;102145.78;3570327;40;20155;-62
2022/11/10 10:47:56;;;;;;;10.85;2.60;;;;;;;17.99;55.17;102153.28;3561016;40;20345;-62
2022/11/10 10:50:33;;;;;;;10.23;2.55;;;;;;;18.28;54.82;102165.66;3559054;40;20101;-62
2022/11/10 10:53:12;;;;;;;14.77;2.97;;;;;;;18.27;53.33;102157.59;3559689;40;20064;-62
2022/11/10 10:55:51;;;;;;;10.52;2.42;;;;;;;18.44;53.09;102162.66;3558282;40;20125;-62
2022/11/10 10:58:33;;;;;;;9.23;2.30;;;;;;;18.53;52.78;102155.69;3560340;40;20060;-62
2022/11/10 11:01:17;;;;;;;10.43;2.60;;;;;;;18.58;52.31;102167.06;3560705;40;20069;-63
2022/11/10 11:03:46;;;;;;;;;;;;;;;18.77;52.28;102170.22;3560325;40;20095;-62
2022/11/10 11:06:17;;;;;;;11.70;3.25;;;;;;;18.78;50.91;102171.09;3560505;40;19939;-62
2022/11/10 11:08:58;;;;;;;6.70;2.30;;;;;;;18.76;51.89;102163.03;3557791;40;20052;-62
2022/11/10 11:11:32;;;;;;;14.80;2.92;;;;;;;18.84;51.90;102158.84;3557829;40;20061;-62
2022/11/10 11:14:22;;;;;;;11.70;2.33;;;;;;;18.95;51.37;102151.59;3559628;40;20050;-62
2022/11/10 11:16:53;;;;;;;9.18;1.95;;;;;;;18.90;50.88;102155.66;3561636;40;20061;-62
2022/11/10 11:19:25;;;;;;;11.95;2.60;;;;;;;18.82;51.41;102158.97;3561384;40;20059;-62
2022/11/10 11:22:30;;;;;;;8.35;2.50;;;;;;;18.85;51.17;102168.78;3559062;40;20060;-62
2022/11/10 11:25:33;;;;;;;7.88;2.22;;;;;;;18.81;50.51;102153.63;3556422;40;20731;-62
2022/11/10 11:28:29;;;;;;;11.35;2.40;;;;;;;18.74;51.17;102159.56;3561478;40;20439;-61
2022/11/10 11:31:31;;;;;;;7.57;1.95;;;;;;;18.76;51.25;102143.94;3559102;40;20080;-61
2022/11/10 11:34:15;;;;;;;10.15;2.15;;;;;;;19.11;50.92;102154.00;3559726;40;20046;-62
2022/11/10 11:37:05;;;;;;;12.77;2.58;;;;;;;19.33;49.66;102157.81;3558770;40;20067;-62
2022/11/10 11:39:47;;;;;;;8.13;2.00;;;;;;;19.62;48.88;102177.34;3558727;40;20053;-62
2022/11/10 11:43:02;;;;;;;10.48;2.45;;;;;;;19.57;47.99;102182.28;3557085;40;20187;-62
2022/11/10 11:45:56;;;;;;;8.05;2.30;;;;;;;19.42;48.64;102181.66;3559992;40;20055;-62
2022/11/10 11:48:58;;;;;;;13.45;2.60;;;;;;;19.02;49.56;102187.44;3560642;40;20099;-62
2022/11/10 11:51:55;;;;;;;9.68;2.03;;;;;;;18.85;49.69;102182.41;3556657;40;20912;-62